Latest Weather Observations for Macquarie Island

IDT60801

Issued at 10:31 pm EST Wednesday 2 September 2015 (issued every 30 minutes, with the page automatically refreshed every 10 minutes)

About weather observations | Map of weather stations | Latest weather observations for TAS | Other Formats
Station Details ID: 300004 Name: MACQUARIE ISLAND Lat: -54.50 Lon: 158.94 Height: 6.0 m
Data from the previous 72 hours. | See also: Recent months at Macquarie Island
Date/Time
EST
Temp
°C
App
Temp
°C
Dew
Point
Rel
Hum
%
Delta-T
°C
Wind Press
QNH
hPa
Press
MSL
hPa
Rain
since 9 am
mm
Dir
 
Spd
km/h
Gust
km/h
Spd
kts
Gust
kts
02/10:30pm 4.9 -7.2 4.0 94 0.4 NNW 57 67 31 36 988.4 - 1.2
02/10:00pm 4.8 -6.8 3.9 94 0.4 NNW 54 61 29 33 988.7 - 0.8
02/09:30pm 4.7 -6.2 3.8 94 0.4 NNW 50 56 27 30 989.4 - 0.4
02/09:00pm 4.7 -5.4 3.8 94 0.4 NNW 46 56 25 30 990.2 990.5 0.4
02/08:30pm 4.7 -5.8 3.7 93 0.4 NNW 48 56 26 30 990.8 - 0.2
02/08:00pm 4.5 -5.6 3.5 93 0.4 NNW 46 54 25 29 991.3 - 0.2
02/07:30pm 4.6 -5.2 3.6 93 0.4 NNW 44 50 24 27 992.0 - 0.2
02/07:00pm 4.4 -4.4 3.4 93 0.4 NNW 39 44 21 24 992.5 - 0.0
02/06:30pm 4.5 -5.1 3.3 92 0.5 NNW 43 48 23 26 993.0 - 0.0
02/06:00pm 4.5 -4.8 3.2 91 0.5 NNW 41 46 22 25 993.5 993.8 0.0
02/05:30pm 4.5 -4.0 3.2 91 0.5 NNW 37 43 20 23 994.0 - 0.0
02/05:00pm 4.5 -3.6 3.2 91 0.5 NNW 35 41 19 22 994.4 - 0.0
02/04:30pm 4.5 -3.2 3.3 92 0.5 NNW 33 39 18 21 994.7 - 0.0
02/04:00pm 4.5 -3.2 3.2 91 0.5 NNW 33 39 18 21 995.2 - 0.0
02/03:30pm 4.5 -3.2 3.2 91 0.5 NNW 33 37 18 20 995.5 - 0.0
02/03:00pm 4.5 -3.6 3.2 91 0.5 NNW 35 39 19 21 996.1 996.4 0.0
02/02:30pm 4.8 -2.0 3.3 90 0.6 NW 28 33 15 18 996.6 - 0.0
02/02:00pm 4.8 -2.0 3.3 90 0.6 NW 28 33 15 18 996.9 - 0.0
02/01:30pm 4.9 -1.8 3.4 90 0.6 NW 28 35 15 19 997.3 - 0.0
02/01:00pm 5.1 -1.6 3.6 90 0.6 NW 28 35 15 19 997.5 - 0.0
02/12:30pm 4.9 -2.6 3.4 90 0.6 NW 32 35 17 19 997.8 - 0.0
02/12:00pm 4.9 -2.6 3.4 90 0.6 NW 32 33 17 18 998.2 998.5 0.0
02/11:30am 4.9 -2.6 3.4 90 0.6 NW 32 35 17 19 998.8 - 0.0
02/11:00am 5.0 -3.1 3.5 90 0.6 NW 35 41 19 22 998.9 - 0.0
02/10:30am 5.1 -2.3 4.1 93 0.4 NW 32 39 17 21 999.4 - 0.0
02/10:00am 4.5 -3.6 3.3 92 0.5 WNW 35 41 19 22 999.8 - 0.0
02/09:30am 4.7 -3.3 3.7 93 0.4 WNW 35 41 19 22 999.9 - 0.0
02/09:00am 4.4 -3.1 3.4 93 0.4 WNW 32 39 17 21 1000.1 1000.4 0.6
02/08:30am 4.3 -4.2 3.3 93 0.4 WNW 37 44 20 24 1000.3 - 0.6
02/08:00am 4.2 -3.9 3.2 93 0.4 WNW 35 44 19 24 1000.5 - 0.6
02/07:30am 4.2 -3.9 3.2 93 0.4 WNW 35 43 19 23 1000.5 - 0.6
02/07:00am 4.1 -4.8 3.1 93 0.4 WNW 39 46 21 25 1000.4 - 0.6
02/06:30am 4.0 -4.9 3.0 93 0.4 WNW 39 48 21 26 1000.3 - 0.6
02/06:00am 4.0 -4.9 2.8 92 0.5 WNW 39 44 21 24 1000.5 1000.8 0.6
02/05:30am 4.0 -4.6 2.8 92 0.5 WNW 37 46 20 25 1000.8 - 0.6
02/05:00am 4.0 -4.6 2.7 91 0.5 WNW 37 43 20 23 1000.9 - 0.6
02/04:30am 3.9 -4.4 2.4 90 0.6 WNW 35 41 19 22 1001.0 - 0.6
02/04:00am 3.9 -4.0 2.4 90 0.6 WNW 33 41 18 22 1001.4 - 0.6
02/03:30am 3.7 -4.6 2.2 90 0.6 WNW 35 41 19 22 1001.6 - 0.6
02/03:00am 3.6 -5.1 2.3 91 0.5 WNW 37 44 20 24 1001.7 1002.0 0.6
02/02:30am 3.5 -6.0 2.0 90 0.6 WNW 41 46 22 25 1002.0 - 0.6
02/02:00am 3.6 -5.5 2.1 90 0.6 WNW 39 46 21 25 1002.5 - 0.6
02/01:30am 3.6 -5.8 2.1 90 0.6 WNW 41 48 22 26 1002.9 - 0.6
02/01:00am 3.4 -5.7 1.9 90 0.6 WNW 39 44 21 24 1003.4 - 0.6
02/12:30am 3.5 -6.3 2.0 90 0.6 NW 43 50 23 27 1003.7 - 0.6
02/12:00am 3.4 -6.0 2.1 91 0.5 NW 41 46 22 25 1004.0 1004.3 0.6
 
Date/Time
EST
Temp
°C
App
Temp
°C
Dew
Point
Rel
Hum
%
Delta-T
°C
Wind Press
QNH
hPa
Press
MSL
hPa
Rain
since 9 am
mm
Dir
 
Spd
km/h
Gust
km/h
Spd
kts
Gust
kts
01/11:30pm 3.3 -5.8 1.8 90 0.6 WNW 39 44 21 24 1004.2 - 0.6
01/11:00pm 3.2 -5.9 1.9 91 0.5 WNW 39 48 21 26 1004.8 - 0.6
01/10:30pm 3.3 -6.2 1.8 90 0.6 WNW 41 46 22 25 1005.1 - 0.6
01/10:00pm 2.9 -5.9 1.4 90 0.6 WNW 37 43 20 23 1005.5 - 0.6
01/09:30pm 2.9 -5.1 1.4 90 0.6 WNW 33 41 18 22 1005.9 - 0.6
01/09:00pm 2.9 -5.2 1.3 89 0.6 WNW 33 43 18 23 1006.3 1006.6 0.6
01/08:30pm 2.7 -4.4 1.2 90 0.6 WNW 28 35 15 19 1006.7 - 0.6
01/08:00pm 2.8 -4.4 1.0 88 0.7 W 28 35 15 19 1007.1 - 0.4
01/07:30pm 2.9 -4.2 1.1 88 0.7 WNW 28 33 15 18 1007.1 - 0.2
01/07:00pm 2.8 -4.7 1.3 90 0.6 WNW 30 37 16 20 1007.4 - 0.2
01/06:30pm 2.6 -5.3 1.3 91 0.5 WNW 32 37 17 20 1007.7 - 0.2
01/06:00pm 2.4 -5.1 1.2 92 0.5 WNW 30 33 16 18 1007.6 1007.9 0.2
01/05:30pm 2.7 -5.7 1.7 93 0.4 WNW 35 43 19 23 1008.0 - 0.0
01/05:00pm 2.7 -6.5 1.5 92 0.5 WNW 39 46 21 25 1008.2 - 0.0
01/04:30pm 2.8 -5.6 1.5 91 0.5 WNW 35 43 19 23 1008.5 - 0.0
01/04:00pm 2.8 -5.1 1.3 90 0.6 WNW 32 41 17 22 1008.8 - 0.0
01/03:30pm 2.9 -4.7 0.8 86 0.8 WNW 30 37 16 20 1009.4 - 0.0
01/03:00pm 2.6 -6.4 0.2 84 0.9 W 37 43 20 23 1009.9 1010.2 0.0
01/02:30pm 2.8 -6.1 0.7 86 0.8 WNW 37 44 20 24 1010.3 - 0.0
01/02:00pm 3.1 -5.7 1.6 90 0.6 W 37 43 20 23 1010.7 - 0.0
01/01:30pm 3.4 -5.4 1.6 88 0.7 WNW 37 44 20 24 1011.2 - 0.0
01/01:00pm 3.5 -5.3 1.5 87 0.8 WNW 37 46 20 25 1011.7 - 0.0
01/12:30pm 3.6 -5.2 1.6 87 0.8 WNW 37 43 20 23 1012.3 - 0.0
01/12:00pm 3.5 -5.3 1.1 84 0.9 WNW 37 44 20 24 1012.6 1012.9 0.0
01/11:30am 3.7 -5.1 1.1 83 1.0 WNW 37 43 20 23 1013.0 - 0.0
01/11:00am 3.4 -5.4 1.6 88 0.7 WNW 37 44 20 24 1013.8 - 0.0
01/10:30am 3.6 -4.3 1.3 85 0.9 WNW 32 35 17 19 1014.3 - 0.0
01/10:00am 3.4 -4.9 1.9 90 0.6 WNW 35 46 19 25 1014.7 - 0.0
01/09:30am 3.1 -6.1 1.0 86 0.8 WNW 39 46 21 25 1015.0 - 0.0
01/09:00am 2.8 -6.5 0.5 85 0.9 WNW 39 46 21 25 1015.4 1015.7 0.8
01/08:30am 2.7 -5.7 1.4 91 0.5 NW 35 43 19 23 1015.7 - 0.8
01/08:00am 2.6 -5.5 0.8 88 0.7 NW 33 39 18 21 1016.1 - 0.8
01/07:30am 2.4 -5.7 0.8 89 0.6 WNW 33 39 18 21 1016.5 - 0.8
01/07:00am 1.9 -6.3 0.6 91 0.5 WNW 33 39 18 21 1017.0 - 0.8
01/06:30am 1.7 -6.3 0.5 92 0.4 WNW 32 37 17 20 1017.4 - 0.6
01/06:00am 1.5 -5.8 0.0 90 0.5 WNW 28 33 15 18 1017.9 1018.2 0.6
01/05:30am 1.5 -6.2 -0.3 88 0.7 WNW 30 37 16 20 1018.5 - 0.6
01/05:00am 1.6 -6.0 0.3 91 0.5 WNW 30 37 16 20 1018.8 - 0.6
01/04:30am 1.4 -6.6 0.2 92 0.4 WNW 32 39 17 21 1019.2 - 0.6
01/04:00am 1.2 -6.1 0.2 93 0.4 WNW 28 35 15 19 1019.5 - 0.6
01/03:30am 0.8 -6.5 -0.3 92 0.4 NW 28 32 15 17 1020.1 - 0.6
01/03:00am 0.8 -6.2 -0.2 93 0.4 WNW 26 33 14 18 1020.6 1020.9 0.4
01/02:30am 0.8 -6.2 -0.3 92 0.4 WNW 26 33 14 18 1021.0 - 0.2
01/02:00am 0.9 -6.0 -0.1 93 0.4 NW 26 32 14 17 1021.5 - 0.2
01/01:30am 0.7 -5.9 -0.3 93 0.4 WNW 24 32 13 17 1022.1 - 0.2
01/01:00am 0.6 -6.4 -0.4 93 0.4 WNW 26 32 14 17 1022.7 - 0.2
01/12:30am 0.6 -6.0 -0.4 93 0.4 NW 24 28 13 15 1023.1 - 0.2
01/12:00am 0.6 -5.6 -0.4 93 0.4 WNW 22 28 12 15 1023.7 1024.0 0.2
 
Date/Time
EST
Temp
°C
App
Temp
°C
Dew
Point
Rel
Hum
%
Delta-T
°C
Wind Press
QNH
hPa
Press
MSL
hPa
Rain
since 9 am
mm
Dir
 
Spd
km/h
Gust
km/h
Spd
kts
Gust
kts
31/11:30pm 0.5 -6.1 -0.5 93 0.4 WNW 24 30 13 16 1023.8 - 0.2
31/11:00pm 0.5 -6.1 -0.5 93 0.4 WNW 24 30 13 16 1024.1 - 0.2
31/10:30pm 0.8 -5.8 -0.2 93 0.4 WNW 24 28 13 15 1024.4 - 0.2
31/10:00pm 0.8 -5.8 -0.1 94 0.3 WNW 24 28 13 15 1024.6 - 0.2
31/09:30pm 0.8 -5.0 -0.1 94 0.3 WNW 20 24 11 13 1025.1 - 0.2
31/09:00pm 1.0 -4.8 0.1 94 0.3 NW 20 26 11 14 1025.5 1025.8 0.0
31/08:30pm 0.4 -4.9 -0.4 94 0.3 NNW 17 19 9 10 1025.9 - 0.0
31/08:00pm 0.0 -4.6 -1.0 93 0.4 NNW 13 15 7 8 1026.3 - 0.0
31/07:30pm 0.2 -4.4 -0.8 93 0.4 NW 13 15 7 8 1026.6 - 0.0
31/07:00pm 0.1 -4.5 -1.0 92 0.4 NW 13 17 7 9 1026.9 - 0.0
31/06:30pm 0.0 -3.5 -1.3 91 0.5 W 7 13 4 7 1027.1 - 0.0
31/06:00pm 0.0 -3.9 -1.3 91 0.5 W 9 13 5 7 1027.2 1027.5 0.0
31/05:30pm 0.1 -3.4 -1.3 90 0.5 WSW 7 9 4 5 1027.5 - 0.0
31/05:00pm 0.1 -3.8 -1.3 90 0.5 W 9 13 5 7 1027.6 - 0.0
31/04:30pm 0.4 -3.1 -1.3 88 0.6 WSW 7 11 4 6 1027.9 - 0.0
31/04:00pm 0.7 -3.2 -1.2 87 0.7 W 9 17 5 9 1028.0 - 0.0
31/03:30pm 1.2 -3.0 -0.9 86 0.7 W 11 17 6 9 1028.2 - 0.0
31/03:00pm 2.2 -2.3 -0.1 85 0.8 W 13 17 7 9 1028.4 1028.7 0.0
31/02:30pm 2.4 -1.7 0.0 84 0.9 W 11 15 6 8 1028.4 - 0.0
31/02:00pm 1.9 -0.4 0.1 88 0.7 ESE 2 9 1 5 1028.8 - 0.0
31/01:30pm 1.8 -1.5 0.2 89 0.6 E 7 11 4 6 1028.9 - 0.0
31/01:00pm 1.8 -1.5 0.2 89 0.6 ESE 7 9 4 5 1029.0 - 0.0
31/12:30pm 1.8 -1.5 0.3 90 0.6 ESE 7 9 4 5 1029.3 - 0.0
31/12:00pm 1.5 -1.6 0.0 90 0.5 ENE 6 9 3 5 1029.5 1029.8 0.0
31/11:30am 1.4 -1.8 -0.2 89 0.6 S 6 7 3 4 1030.0 - 0.0
31/11:00am 1.3 -2.8 -0.5 88 0.6 SSE 11 15 6 8 1030.1 - 0.0
31/10:30am 1.8 -2.3 0.0 88 0.7 SE 11 15 6 8 1030.2 - 0.0
31/10:00am 1.4 -3.5 -0.4 88 0.6 SSE 15 19 8 10 1030.2 - 0.0
31/09:30am 1.0 -3.2 -0.6 89 0.6 SSE 11 15 6 8 1030.2 - 0.0
31/09:00am 0.9 -3.6 -0.5 90 0.5 S 13 17 7 9 1030.3 1030.6 0.0
31/08:30am 0.6 -4.0 -0.8 90 0.5 S 13 17 7 9 1030.3 - 0.0
31/08:00am 0.5 -3.7 -0.9 90 0.5 SSE 11 15 6 8 1030.2 - 0.0
31/07:30am 0.6 -3.2 -0.8 90 0.5 S 9 13 5 7 1030.2 - 0.0
31/07:00am 0.1 -3.4 -1.3 90 0.5 S 7 9 4 5 1030.1 - 0.0
31/06:30am -0.2 -2.4 -1.8 89 0.5 CALM 0 0 0 0 1029.8 - 0.0
31/06:00am 0.4 -3.5 -1.2 89 0.6 S 9 13 5 7 1030.0 1030.3 0.0
31/05:30am 0.7 -3.9 -0.7 90 0.5 S 13 20 7 11 1030.2 - 0.0
31/05:00am 0.8 -3.4 -0.6 90 0.5 S 11 19 6 10 1030.2 - 0.0
31/04:30am 0.9 -4.0 -0.4 91 0.5 S 15 20 8 11 1029.9 - 0.0
31/04:00am 1.0 -3.5 -0.3 91 0.5 S 13 20 7 11 1029.7 - 0.0
31/03:30am 1.0 -3.1 -0.3 91 0.5 S 11 17 6 9 1029.7 - 0.0
31/03:00am 1.1 -2.2 -0.2 91 0.5 SW 7 13 4 7 1029.7 1030.0 0.0
31/02:30am 1.1 -2.2 -0.2 91 0.5 W 7 11 4 6 1029.7 - 0.0
31/02:00am 1.1 -0.9 -0.2 91 0.5 CALM 0 0 0 0 1029.8 - 0.0
31/01:30am 1.1 -2.2 -0.2 91 0.5 SSW 7 17 4 9 1030.2 - 0.0
31/01:00am 0.9 -3.2 -0.4 91 0.5 SSW 11 15 6 8 1030.3 - 0.0
31/12:30am 0.8 -3.7 -0.5 91 0.5 WSW 13 20 7 11 1030.1 - 0.0
31/12:00am 0.9 -1.5 -0.4 91 0.5 SE 2 11 1 6 1030.3 1030.6 0.0
 
Date/Time
EST
Temp
°C
App
Temp
°C
Dew
Point
Rel
Hum
%
Delta-T
°C
Wind Press
QNH
hPa
Press
MSL
hPa
Rain
since 9 am
mm
Dir
 
Spd
km/h
Gust
km/h
Spd
kts
Gust
kts
30/11:30pm 0.9 -2.5 -0.5 90 0.5 S 7 13 4 7 1030.3 - 0.0
30/11:00pm 0.8 -2.6 -0.6 90 0.5 SSW 7 11 4 6 1030.1 - 0.0

Other Formats:

Comma delimited format used in spreadsheet applications
http://www.bom.gov.au/fwo/IDT60801/IDT60801.94998.axf

JavaScript Object Notation format (JSON) in row-major order
http://www.bom.gov.au/fwo/IDT60801/IDT60801.94998.json